sensor_id;sensor_type;location;lat;lon;timestamp;temperature;humidity
22966;DHT22;11649;48.090;9.754;2022-10-28T00:01:22;11.40;99.90
22966;DHT22;11649;48.090;9.754;2022-10-28T00:03:51;11.00;99.90
22966;DHT22;11649;48.090;9.754;2022-10-28T00:06:30;10.90;99.90
22966;DHT22;11649;48.090;9.754;2022-10-28T00:08:57;10.90;99.90
22966;DHT22;11649;48.090;9.754;2022-10-28T00:11:32;10.80;99.90
22966;DHT22;11649;48.090;9.754;2022-10-28T00:14:03;11.10;99.90
22966;DHT22;11649;48.090;9.754;2022-10-28T00:16:33;10.90;99.90
22966;DHT22;11649;48.090;9.754;2022-10-28T00:19:01;10.90;99.90
22966;DHT22;11649;48.090;9.754;2022-10-28T00:21:32;10.90;99.90
22966;DHT22;11649;48.090;9.754;2022-10-28T00:23:59;10.90;99.90
22966;DHT22;11649;48.090;9.754;2022-10-28T00:26:28;11.40;99.90
22966;DHT22;11649;48.090;9.754;2022-10-28T00:29:01;11.30;99.90
22966;DHT22;11649;48.090;9.754;2022-10-28T00:31:30;10.90;99.90
22966;DHT22;11649;48.090;9.754;2022-10-28T00:33:58;10.80;99.90
22966;DHT22;11649;48.090;9.754;2022-10-28T00:36:28;11.60;99.90
22966;DHT22;11649;48.090;9.754;2022-10-28T00:38:55;10.70;99.90
22966;DHT22;11649;48.090;9.754;2022-10-28T00:41:31;10.80;99.90
22966;DHT22;11649;48.090;9.754;2022-10-28T00:47:03;10.80;99.90
22966;DHT22;11649;48.090;9.754;2022-10-28T00:49:32;10.70;99.90
22966;DHT22;11649;48.090;9.754;2022-10-28T00:52:12;10.70;99.90
22966;DHT22;11649;48.090;9.754;2022-10-28T00:54:42;10.70;99.90
22966;DHT22;11649;48.090;9.754;2022-10-28T00:57:14;10.70;99.90
22966;DHT22;11649;48.090;9.754;2022-10-28T00:59:45;10.80;99.90
22966;DHT22;11649;48.090;9.754;2022-10-28T01:02:12;10.90;99.90
22966;DHT22;11649;48.090;9.754;2022-10-28T01:04:40;10.70;99.90
22966;DHT22;11649;48.090;9.754;2022-10-28T01:07:08;11.00;99.90
22966;DHT22;11649;48.090;9.754;2022-10-28T01:09:36;10.80;99.90
22966;DHT22;11649;48.090;9.754;2022-10-28T01:15:27;10.80;99.90
22966;DHT22;11649;48.090;9.754;2022-10-28T01:18:21;10.80;99.90
22966;DHT22;11649;48.090;9.754;2022-10-28T01:23:26;10.90;99.90
22966;DHT22;11649;48.090;9.754;2022-10-28T01:32:28;10.90;99.90
22966;DHT22;11649;48.090;9.754;2022-10-28T01:40:47;11.00;99.90
22966;DHT22;11649;48.090;9.754;2022-10-28T01:46:00;11.00;99.90
22966;DHT22;11649;48.090;9.754;2022-10-28T01:53:44;11.00;99.90
22966;DHT22;11649;48.090;9.754;2022-10-28T01:56:16;10.80;99.90
22966;DHT22;11649;48.090;9.754;2022-10-28T01:58:44;10.80;99.90
22966;DHT22;11649;48.090;9.754;2022-10-28T02:01:12;11.10;99.90
22966;DHT22;11649;48.090;9.754;2022-10-28T02:03:39;10.60;99.90
22966;DHT22;11649;48.090;9.754;2022-10-28T02:06:18;10.60;99.90
22966;DHT22;11649;48.090;9.754;2022-10-28T02:14:41;10.50;99.90
22966;DHT22;11649;48.090;9.754;2022-10-28T02:20:13;10.30;99.90
22966;DHT22;11649;48.090;9.754;2022-10-28T02:22:50;10.30;99.90
22966;DHT22;11649;48.090;9.754;2022-10-28T02:28:08;10.30;99.90
22966;DHT22;11649;48.090;9.754;2022-10-28T02:33:11;10.20;99.90
22966;DHT22;11649;48.090;9.754;2022-10-28T02:35:47;10.70;99.90
22966;DHT22;11649;48.090;9.754;2022-10-28T02:38:18;10.20;99.90
22966;DHT22;11649;48.090;9.754;2022-10-28T02:40:51;10.30;99.90
22966;DHT22;11649;48.090;9.754;2022-10-28T02:43:21;10.10;99.90
22966;DHT22;11649;48.090;9.754;2022-10-28T02:45:52;10.10;99.90
22966;DHT22;11649;48.090;9.754;2022-10-28T02:48:25;10.00;99.90
22966;DHT22;11649;48.090;9.754;2022-10-28T02:50:59;10.20;99.90
22966;DHT22;11649;48.090;9.754;2022-10-28T02:53:31;10.30;99.90
22966;DHT22;11649;48.090;9.754;2022-10-28T02:56:00;10.10;99.90
22966;DHT22;11649;48.090;9.754;2022-10-28T02:58:28;9.90;99.90
22966;DHT22;11649;48.090;9.754;2022-10-28T03:00:55;10.60;99.90
22966;DHT22;11649;48.090;9.754;2022-10-28T03:03:22;10.10;99.90
22966;DHT22;11649;48.090;9.754;2022-10-28T03:05:49;9.80;99.90
22966;DHT22;11649;48.090;9.754;2022-10-28T03:08:15;9.70;99.90
22966;DHT22;11649;48.090;9.754;2022-10-28T03:10:42;9.90;99.90
22966;DHT22;11649;48.090;9.754;2022-10-28T03:13:09;10.30;99.90
22966;DHT22;11649;48.090;9.754;2022-10-28T03:15:36;9.90;99.90
22966;DHT22;11649;48.090;9.754;2022-10-28T03:18:02;10.10;99.90
22966;DHT22;11649;48.090;9.754;2022-10-28T03:20:29;10.20;99.90
22966;DHT22;11649;48.090;9.754;2022-10-28T03:22:56;10.70;99.90
22966;DHT22;11649;48.090;9.754;2022-10-28T03:25:23;10.10;99.90
22966;DHT22;11649;48.090;9.754;2022-10-28T03:27:49;10.00;99.90
22966;DHT22;11649;48.090;9.754;2022-10-28T03:30:16;9.70;99.90
22966;DHT22;11649;48.090;9.754;2022-10-28T03:32:44;9.80;99.90
22966;DHT22;11649;48.090;9.754;2022-10-28T03:35:11;9.80;99.90
22966;DHT22;11649;48.090;9.754;2022-10-28T03:37:41;9.70;99.90
22966;DHT22;11649;48.090;9.754;2022-10-28T03:40:09;10.30;99.90
22966;DHT22;11649;48.090;9.754;2022-10-28T03:42:36;9.90;99.90
22966;DHT22;11649;48.090;9.754;2022-10-28T03:45:07;9.70;99.90
22966;DHT22;11649;48.090;9.754;2022-10-28T03:47:35;10.00;99.90
22966;DHT22;11649;48.090;9.754;2022-10-28T03:50:01;9.80;99.90
22966;DHT22;11649;48.090;9.754;2022-10-28T03:52:28;10.10;99.90
22966;DHT22;11649;48.090;9.754;2022-10-28T03:54:55;10.30;99.90
22966;DHT22;11649;48.090;9.754;2022-10-28T03:57:22;10.10;99.90
22966;DHT22;11649;48.090;9.754;2022-10-28T03:59:48;9.90;99.90
22966;DHT22;11649;48.090;9.754;2022-10-28T04:02:15;10.00;99.90
22966;DHT22;11649;48.090;9.754;2022-10-28T04:04:42;10.50;99.90
22966;DHT22;11649;48.090;9.754;2022-10-28T04:07:08;10.20;99.90
22966;DHT22;11649;48.090;9.754;2022-10-28T04:09:35;10.10;99.90
22966;DHT22;11649;48.090;9.754;2022-10-28T04:12:02;10.10;99.90
22966;DHT22;11649;48.090;9.754;2022-10-28T04:14:29;10.20;99.90
22966;DHT22;11649;48.090;9.754;2022-10-28T04:16:55;10.80;99.90
22966;DHT22;11649;48.090;9.754;2022-10-28T04:19:22;10.90;99.90
22966;DHT22;11649;48.090;9.754;2022-10-28T04:21:49;10.30;99.90
22966;DHT22;11649;48.090;9.754;2022-10-28T04:24:15;10.10;99.90
22966;DHT22;11649;48.090;9.754;2022-10-28T04:26:42;10.40;99.90
22966;DHT22;11649;48.090;9.754;2022-10-28T04:29:09;10.30;99.90
22966;DHT22;11649;48.090;9.754;2022-10-28T04:31:36;10.80;99.90
22966;DHT22;11649;48.090;9.754;2022-10-28T04:34:02;10.90;99.90
22966;DHT22;11649;48.090;9.754;2022-10-28T04:36:29;10.40;99.90
22966;DHT22;11649;48.090;9.754;2022-10-28T04:38:56;10.20;99.90
22966;DHT22;11649;48.090;9.754;2022-10-28T04:41:22;10.10;99.90
22966;DHT22;11649;48.090;9.754;2022-10-28T04:43:49;10.10;99.90
22966;DHT22;11649;48.090;9.754;2022-10-28T04:46:16;10.20;99.90
22966;DHT22;11649;48.090;9.754;2022-10-28T04:48:43;10.10;99.90
22966;DHT22;11649;48.090;9.754;2022-10-28T04:51:11;10.00;99.90
22966;DHT22;11649;48.090;9.754;2022-10-28T04:53:38;10.10;99.90
22966;DHT22;11649;48.090;9.754;2022-10-28T04:56:05;10.10;99.90
22966;DHT22;11649;48.090;9.754;2022-10-28T04:58:32;10.30;99.90
22966;DHT22;11649;48.090;9.754;2022-10-28T05:00:58;10.20;99.90
22966;DHT22;11649;48.090;9.754;2022-10-28T05:03:25;10.20;99.90
22966;DHT22;11649;48.090;9.754;2022-10-28T05:05:52;10.20;99.90
22966;DHT22;11649;48.090;9.754;2022-10-28T05:08:18;10.40;99.90
22966;DHT22;11649;48.090;9.754;2022-10-28T05:10:45;10.10;99.90
22966;DHT22;11649;48.090;9.754;2022-10-28T05:13:16;10.20;99.90
22966;DHT22;11649;48.090;9.754;2022-10-28T05:15:43;10.40;99.90
22966;DHT22;11649;48.090;9.754;2022-10-28T05:18:10;10.30;99.90
22966;DHT22;11649;48.090;9.754;2022-10-28T05:20:36;10.20;99.90
22966;DHT22;11649;48.090;9.754;2022-10-28T05:23:03;9.90;99.90
22966;DHT22;11649;48.090;9.754;2022-10-28T05:25:30;9.90;99.90
22966;DHT22;11649;48.090;9.754;2022-10-28T05:27:57;10.00;99.90
22966;DHT22;11649;48.090;9.754;2022-10-28T05:30:26;10.00;99.90
22966;DHT22;11649;48.090;9.754;2022-10-28T05:33:03;9.90;99.90
22966;DHT22;11649;48.090;9.754;2022-10-28T05:35:30;9.80;99.90
22966;DHT22;11649;48.090;9.754;2022-10-28T05:37:57;9.90;99.90
22966;DHT22;11649;48.090;9.754;2022-10-28T05:40:24;9.90;99.90
22966;DHT22;11649;48.090;9.754;2022-10-28T05:42:50;10.10;99.90
22966;DHT22;11649;48.090;9.754;2022-10-28T05:45:18;10.10;99.90
22966;DHT22;11649;48.090;9.754;2022-10-28T05:47:46;10.00;99.90
22966;DHT22;11649;48.090;9.754;2022-10-28T05:50:15;10.00;99.90
22966;DHT22;11649;48.090;9.754;2022-10-28T05:52:47;10.30;99.90
22966;DHT22;11649;48.090;9.754;2022-10-28T05:55:15;10.30;99.90
22966;DHT22;11649;48.090;9.754;2022-10-28T05:57:41;10.10;99.90
22966;DHT22;11649;48.090;9.754;2022-10-28T06:00:09;10.30;99.90
22966;DHT22;11649;48.090;9.754;2022-10-28T06:02:36;10.10;99.90
22966;DHT22;11649;48.090;9.754;2022-10-28T06:05:03;9.80;99.90
22966;DHT22;11649;48.090;9.754;2022-10-28T06:07:29;9.90;99.90
22966;DHT22;11649;48.090;9.754;2022-10-28T06:09:56;9.80;99.90
22966;DHT22;11649;48.090;9.754;2022-10-28T06:12:23;10.00;99.90
22966;DHT22;11649;48.090;9.754;2022-10-28T06:14:50;10.00;99.90
22966;DHT22;11649;48.090;9.754;2022-10-28T06:17:17;10.70;99.90
22966;DHT22;11649;48.090;9.754;2022-10-28T06:19:43;9.80;99.90
22966;DHT22;11649;48.090;9.754;2022-10-28T06:22:11;9.90;99.90
22966;DHT22;11649;48.090;9.754;2022-10-28T06:24:37;9.90;99.90
22966;DHT22;11649;48.090;9.754;2022-10-28T06:27:04;9.90;99.90
22966;DHT22;11649;48.090;9.754;2022-10-28T06:29:31;10.10;99.90
22966;DHT22;11649;48.090;9.754;2022-10-28T06:31:58;10.30;99.90
22966;DHT22;11649;48.090;9.754;2022-10-28T06:34:25;9.60;99.90
22966;DHT22;11649;48.090;9.754;2022-10-28T06:36:51;9.70;99.90
22966;DHT22;11649;48.090;9.754;2022-10-28T06:39:18;10.10;99.90
22966;DHT22;11649;48.090;9.754;2022-10-28T06:41:45;10.80;99.90
22966;DHT22;11649;48.090;9.754;2022-10-28T06:44:12;10.40;99.90
22966;DHT22;11649;48.090;9.754;2022-10-28T06:46:38;10.00;99.90
22966;DHT22;11649;48.090;9.754;2022-10-28T06:49:05;10.40;99.90
22966;DHT22;11649;48.090;9.754;2022-10-28T06:51:32;10.40;99.90
22966;DHT22;11649;48.090;9.754;2022-10-28T06:53:59;10.30;99.90
22966;DHT22;11649;48.090;9.754;2022-10-28T06:56:25;11.00;99.90
22966;DHT22;11649;48.090;9.754;2022-10-28T06:58:53;10.90;99.90
22966;DHT22;11649;48.090;9.754;2022-10-28T07:01:21;10.50;99.90
22966;DHT22;11649;48.090;9.754;2022-10-28T07:03:48;10.80;99.90
22966;DHT22;11649;48.090;9.754;2022-10-28T07:06:15;10.70;99.90
22966;DHT22;11649;48.090;9.754;2022-10-28T07:08:43;11.20;99.90
22966;DHT22;11649;48.090;9.754;2022-10-28T07:11:10;11.60;99.90
22966;DHT22;11649;48.090;9.754;2022-10-28T07:13:36;11.10;99.90
22966;DHT22;11649;48.090;9.754;2022-10-28T07:16:03;11.30;99.90
22966;DHT22;11649;48.090;9.754;2022-10-28T07:18:30;11.60;99.90
22966;DHT22;11649;48.090;9.754;2022-10-28T07:20:58;12.70;99.90
22966;DHT22;11649;48.090;9.754;2022-10-28T07:23:26;11.50;99.90
22966;DHT22;11649;48.090;9.754;2022-10-28T07:25:54;11.70;99.90
22966;DHT22;11649;48.090;9.754;2022-10-28T07:28:22;11.80;99.90
22966;DHT22;11649;48.090;9.754;2022-10-28T07:30:49;12.50;99.90
22966;DHT22;11649;48.090;9.754;2022-10-28T07:33:16;12.30;99.90
22966;DHT22;11649;48.090;9.754;2022-10-28T07:35:43;12.10;99.90
22966;DHT22;11649;48.090;9.754;2022-10-28T07:38:10;12.10;99.90
22966;DHT22;11649;48.090;9.754;2022-10-28T07:40:37;12.80;99.90
22966;DHT22;11649;48.090;9.754;2022-10-28T07:43:04;13.20;99.90
22966;DHT22;11649;48.090;9.754;2022-10-28T07:45:31;12.50;99.90
22966;DHT22;11649;48.090;9.754;2022-10-28T07:47:57;12.70;99.90
22966;DHT22;11649;48.090;9.754;2022-10-28T07:50:24;13.10;99.90
22966;DHT22;11649;48.090;9.754;2022-10-28T07:52:51;12.80;99.90
22966;DHT22;11649;48.090;9.754;2022-10-28T07:55:18;12.60;99.90
22966;DHT22;11649;48.090;9.754;2022-10-28T07:57:47;13.10;99.90
22966;DHT22;11649;48.090;9.754;2022-10-28T08:00:14;13.40;99.90
22966;DHT22;11649;48.090;9.754;2022-10-28T08:02:41;12.70;99.90
22966;DHT22;11649;48.090;9.754;2022-10-28T08:05:08;13.20;99.90
22966;DHT22;11649;48.090;9.754;2022-10-28T08:07:35;12.80;99.90
22966;DHT22;11649;48.090;9.754;2022-10-28T08:10:05;13.40;99.90
22966;DHT22;11649;48.090;9.754;2022-10-28T08:12:32;12.90;99.90
22966;DHT22;11649;48.090;9.754;2022-10-28T08:14:59;13.10;99.90
22966;DHT22;11649;48.090;9.754;2022-10-28T08:17:26;13.00;99.90
22966;DHT22;11649;48.090;9.754;2022-10-28T08:19:52;13.20;99.90
22966;DHT22;11649;48.090;9.754;2022-10-28T08:22:19;13.20;99.90
22966;DHT22;11649;48.090;9.754;2022-10-28T08:24:46;13.30;99.90
22966;DHT22;11649;48.090;9.754;2022-10-28T08:27:12;13.20;99.90
22966;DHT22;11649;48.090;9.754;2022-10-28T08:29:39;13.70;99.90
22966;DHT22;11649;48.090;9.754;2022-10-28T08:32:09;13.50;99.90
22966;DHT22;11649;48.090;9.754;2022-10-28T08:34:35;13.40;99.90
22966;DHT22;11649;48.090;9.754;2022-10-28T08:37:08;13.30;99.90
22966;DHT22;11649;48.090;9.754;2022-10-28T08:39:35;13.40;99.90
22966;DHT22;11649;48.090;9.754;2022-10-28T08:42:37;14.10;99.90
22966;DHT22;11649;48.090;9.754;2022-10-28T08:45:23;13.70;99.90
22966;DHT22;11649;48.090;9.754;2022-10-28T08:50:55;13.90;99.90
22966;DHT22;11649;48.090;9.754;2022-10-28T08:53:34;13.90;99.90
22966;DHT22;11649;48.090;9.754;2022-10-28T08:56:09;13.90;99.90
22966;DHT22;11649;48.090;9.754;2022-10-28T08:58:42;14.00;99.90
22966;DHT22;11649;48.090;9.754;2022-10-28T09:01:18;13.90;99.90
22966;DHT22;11649;48.090;9.754;2022-10-28T09:03:49;14.00;99.90
22966;DHT22;11649;48.090;9.754;2022-10-28T09:06:16;14.40;99.90
22966;DHT22;11649;48.090;9.754;2022-10-28T09:08:48;14.50;99.90
22966;DHT22;11649;48.090;9.754;2022-10-28T09:11:32;14.30;99.90
22966;DHT22;11649;48.090;9.754;2022-10-28T09:16:54;14.20;99.90
22966;DHT22;11649;48.090;9.754;2022-10-28T09:22:19;14.30;99.90
22966;DHT22;11649;48.090;9.754;2022-10-28T09:33:14;14.60;99.90
22966;DHT22;11649;48.090;9.754;2022-10-28T09:35:45;14.60;99.90
22966;DHT22;11649;48.090;9.754;2022-10-28T09:40:57;14.80;99.90
22966;DHT22;11649;48.090;9.754;2022-10-28T09:43:32;14.90;99.90
22966;DHT22;11649;48.090;9.754;2022-10-28T09:46:05;15.00;99.90
22966;DHT22;11649;48.090;9.754;2022-10-28T09:48:36;14.80;99.90
22966;DHT22;11649;48.090;9.754;2022-10-28T09:51:04;14.90;99.90
22966;DHT22;11649;48.090;9.754;2022-10-28T09:53:42;14.80;99.90
22966;DHT22;11649;48.090;9.754;2022-10-28T09:56:10;14.90;99.90
22966;DHT22;11649;48.090;9.754;2022-10-28T09:58:38;14.90;99.90
22966;DHT22;11649;48.090;9.754;2022-10-28T10:01:06;14.90;99.90
22966;DHT22;11649;48.090;9.754;2022-10-28T10:03:33;15.10;99.90
22966;DHT22;11649;48.090;9.754;2022-10-28T10:06:11;15.60;99.90
22966;DHT22;11649;48.090;9.754;2022-10-28T10:08:39;15.10;99.90
22966;DHT22;11649;48.090;9.754;2022-10-28T10:11:20;15.30;99.90
22966;DHT22;11649;48.090;9.754;2022-10-28T10:13:51;15.30;99.90
22966;DHT22;11649;48.090;9.754;2022-10-28T10:16:36;15.40;99.90
22966;DHT22;11649;48.090;9.754;2022-10-28T10:19:07;15.40;99.90
22966;DHT22;11649;48.090;9.754;2022-10-28T10:21:46;15.40;99.90
22966;DHT22;11649;48.090;9.754;2022-10-28T10:26:52;15.40;99.90
22966;DHT22;11649;48.090;9.754;2022-10-28T10:29:20;15.60;99.90
22966;DHT22;11649;48.090;9.754;2022-10-28T10:31:47;15.70;99.90
22966;DHT22;11649;48.090;9.754;2022-10-28T10:34:28;15.60;99.90
22966;DHT22;11649;48.090;9.754;2022-10-28T10:36:56;15.70;99.90
22966;DHT22;11649;48.090;9.754;2022-10-28T10:39:26;15.80;99.90
22966;DHT22;11649;48.090;9.754;2022-10-28T10:41:57;15.80;99.90
22966;DHT22;11649;48.090;9.754;2022-10-28T10:44:30;15.80;99.90
22966;DHT22;11649;48.090;9.754;2022-10-28T10:49:32;16.00;99.90
22966;DHT22;11649;48.090;9.754;2022-10-28T10:52:01;16.10;99.90
22966;DHT22;11649;48.090;9.754;2022-10-28T10:54:30;16.10;99.90
22966;DHT22;11649;48.090;9.754;2022-10-28T10:57:19;16.20;99.90
22966;DHT22;11649;48.090;9.754;2022-10-28T10:59:49;16.50;99.90
22966;DHT22;11649;48.090;9.754;2022-10-28T11:02:23;16.80;99.90
22966;DHT22;11649;48.090;9.754;2022-10-28T11:04:51;17.00;99.90
22966;DHT22;11649;48.090;9.754;2022-10-28T11:07:19;17.10;99.90
22966;DHT22;11649;48.090;9.754;2022-10-28T11:09:48;17.10;99.90
22966;DHT22;11649;48.090;9.754;2022-10-28T11:12:30;17.10;99.90
22966;DHT22;11649;48.090;9.754;2022-10-28T11:17:59;17.30;99.90
22966;DHT22;11649;48.090;9.754;2022-10-28T11:20:40;17.30;99.90
22966;DHT22;11649;48.090;9.754;2022-10-28T11:26:06;17.20;98.60
22966;DHT22;11649;48.090;9.754;2022-10-28T11:36:44;17.50;98.50
22966;DHT22;11649;48.090;9.754;2022-10-28T11:39:23;17.70;98.00
22966;DHT22;11649;48.090;9.754;2022-10-28T11:41:58;17.80;98.80
22966;DHT22;11649;48.090;9.754;2022-10-28T11:44:49;17.80;96.00
22966;DHT22;11649;48.090;9.754;2022-10-28T11:47:50;17.90;95.40
22966;DHT22;11649;48.090;9.754;2022-10-28T11:50:29;17.90;96.60
22966;DHT22;11649;48.090;9.754;2022-10-28T11:53:15;18.00;99.10
22966;DHT22;11649;48.090;9.754;2022-10-28T11:55:55;17.90;99.00
22966;DHT22;11649;48.090;9.754;2022-10-28T11:58:31;18.10;97.20
22966;DHT22;11649;48.090;9.754;2022-10-28T12:01:26;18.40;96.40
22966;DHT22;11649;48.090;9.754;2022-10-28T12:17:42;19.00;93.50
22966;DHT22;11649;48.090;9.754;2022-10-28T12:20:19;19.00;93.10
22966;DHT22;11649;48.090;9.754;2022-10-28T12:22:51;19.10;95.80
22966;DHT22;11649;48.090;9.754;2022-10-28T12:25:23;19.10;94.10
22966;DHT22;11649;48.090;9.754;2022-10-28T12:27:54;19.20;93.60
22966;DHT22;11649;48.090;9.754;2022-10-28T12:30:26;19.40;92.60
22966;DHT22;11649;48.090;9.754;2022-10-28T12:33:06;19.40;91.80
22966;DHT22;11649;48.090;9.754;2022-10-28T12:35:40;19.50;93.80
22966;DHT22;11649;48.090;9.754;2022-10-28T12:38:15;19.60;93.40
22966;DHT22;11649;48.090;9.754;2022-10-28T12:41:06;19.40;93.40
22966;DHT22;11649;48.090;9.754;2022-10-28T12:44:04;19.70;91.60
22966;DHT22;11649;48.090;9.754;2022-10-28T12:52:45;20.00;91.30
22966;DHT22;11649;48.090;9.754;2022-10-28T12:55:28;20.00;90.50
22966;DHT22;11649;48.090;9.754;2022-10-28T13:00:53;20.10;90.20
22966;DHT22;11649;48.090;9.754;2022-10-28T13:03:21;20.10;89.20
22966;DHT22;11649;48.090;9.754;2022-10-28T13:06:10;20.00;89.40
22966;DHT22;11649;48.090;9.754;2022-10-28T13:20:14;20.30;88.60
22966;DHT22;11649;48.090;9.754;2022-10-28T13:23:05;20.20;88.10
22966;DHT22;11649;48.090;9.754;2022-10-28T13:28:23;20.20;88.60
22966;DHT22;11649;48.090;9.754;2022-10-28T13:31:05;20.00;91.50
22966;DHT22;11649;48.090;9.754;2022-10-28T13:33:35;20.10;90.20
22966;DHT22;11649;48.090;9.754;2022-10-28T13:36:32;20.00;89.70
22966;DHT22;11649;48.090;9.754;2022-10-28T13:44:53;20.40;93.40
22966;DHT22;11649;48.090;9.754;2022-10-28T13:52:39;21.80;83.90
22966;DHT22;11649;48.090;9.754;2022-10-28T13:57:43;22.10;79.20
22966;DHT22;11649;48.090;9.754;2022-10-28T14:03:01;22.00;77.70
22966;DHT22;11649;48.090;9.754;2022-10-28T14:08:26;21.30;82.00
22966;DHT22;11649;48.090;9.754;2022-10-28T14:13:38;21.00;85.80
22966;DHT22;11649;48.090;9.754;2022-10-28T14:16:32;20.80;88.40
22966;DHT22;11649;48.090;9.754;2022-10-28T14:21:51;20.60;87.60
22966;DHT22;11649;48.090;9.754;2022-10-28T14:24:36;20.40;86.20
22966;DHT22;11649;48.090;9.754;2022-10-28T14:27:19;20.40;88.30
22966;DHT22;11649;48.090;9.754;2022-10-28T14:43:15;20.20;90.60
22966;DHT22;11649;48.090;9.754;2022-10-28T14:48:44;20.00;91.40
22966;DHT22;11649;48.090;9.754;2022-10-28T14:51:14;20.00;91.70
22966;DHT22;11649;48.090;9.754;2022-10-28T14:53:42;19.90;92.00
22966;DHT22;11649;48.090;9.754;2022-10-28T14:56:27;19.80;92.20
22966;DHT22;11649;48.090;9.754;2022-10-28T14:59:24;20.00;91.90
22966;DHT22;11649;48.090;9.754;2022-10-28T15:01:59;19.90;92.70
22966;DHT22;11649;48.090;9.754;2022-10-28T15:04:27;19.70;93.10
22966;DHT22;11649;48.090;9.754;2022-10-28T15:06:55;19.70;92.60
22966;DHT22;11649;48.090;9.754;2022-10-28T15:09:27;19.60;93.10
22966;DHT22;11649;48.090;9.754;2022-10-28T15:12:01;19.50;95.30
22966;DHT22;11649;48.090;9.754;2022-10-28T15:17:25;19.20;97.70
22966;DHT22;11649;48.090;9.754;2022-10-28T15:19:56;19.20;97.10
22966;DHT22;11649;48.090;9.754;2022-10-28T15:22:28;19.20;96.20
22966;DHT22;11649;48.090;9.754;2022-10-28T15:25:00;19.00;98.90
22966;DHT22;11649;48.090;9.754;2022-10-28T15:27:32;18.90;99.90
22966;DHT22;11649;48.090;9.754;2022-10-28T15:30:00;18.80;99.90
22966;DHT22;11649;48.090;9.754;2022-10-28T15:32:34;18.60;99.90
22966;DHT22;11649;48.090;9.754;2022-10-28T15:37:59;18.50;99.90
22966;DHT22;11649;48.090;9.754;2022-10-28T15:40:33;18.40;99.90
22966;DHT22;11649;48.090;9.754;2022-10-28T15:43:05;18.40;99.90
22966;DHT22;11649;48.090;9.754;2022-10-28T15:45:34;18.40;99.90
22966;DHT22;11649;48.090;9.754;2022-10-28T15:48:13;18.40;99.90
22966;DHT22;11649;48.090;9.754;2022-10-28T15:51:09;18.20;99.90
22966;DHT22;11649;48.090;9.754;2022-10-28T15:53:35;18.50;99.90
22966;DHT22;11649;48.090;9.754;2022-10-28T15:58:42;17.90;99.90
22966;DHT22;11649;48.090;9.754;2022-10-28T16:01:34;17.90;99.90
22966;DHT22;11649;48.090;9.754;2022-10-28T16:04:39;17.60;99.90
22966;DHT22;11649;48.090;9.754;2022-10-28T16:07:07;17.40;99.90
22966;DHT22;11649;48.090;9.754;2022-10-28T16:09:36;17.20;99.90
22966;DHT22;11649;48.090;9.754;2022-10-28T16:12:19;17.00;99.90
22966;DHT22;11649;48.090;9.754;2022-10-28T16:14:57;16.90;99.90
22966;DHT22;11649;48.090;9.754;2022-10-28T16:17:30;16.70;99.90
22966;DHT22;11649;48.090;9.754;2022-10-28T16:20:01;16.60;99.90
22966;DHT22;11649;48.090;9.754;2022-10-28T16:22:32;16.90;99.90
22966;DHT22;11649;48.090;9.754;2022-10-28T16:24:59;16.30;99.90
22966;DHT22;11649;48.090;9.754;2022-10-28T16:27:30;16.30;99.90
22966;DHT22;11649;48.090;9.754;2022-10-28T16:29:58;16.10;99.90
22966;DHT22;11649;48.090;9.754;2022-10-28T16:32:37;16.10;99.90
22966;DHT22;11649;48.090;9.754;2022-10-28T16:35:21;16.00;99.90
22966;DHT22;11649;48.090;9.754;2022-10-28T16:37:49;15.80;99.90
22966;DHT22;11649;48.090;9.754;2022-10-28T16:40:22;16.00;99.90
22966;DHT22;11649;48.090;9.754;2022-10-28T16:43:21;15.90;99.90
22966;DHT22;11649;48.090;9.754;2022-10-28T16:45:49;16.10;99.90
22966;DHT22;11649;48.090;9.754;2022-10-28T16:48:18;15.80;99.90
22966;DHT22;11649;48.090;9.754;2022-10-28T16:50:50;15.80;99.90
22966;DHT22;11649;48.090;9.754;2022-10-28T16:53:17;15.80;99.90
22966;DHT22;11649;48.090;9.754;2022-10-28T16:55:44;15.70;99.90
22966;DHT22;11649;48.090;9.754;2022-10-28T16:58:11;15.80;99.90
22966;DHT22;11649;48.090;9.754;2022-10-28T17:00:39;15.70;99.90
22966;DHT22;11649;48.090;9.754;2022-10-28T17:03:06;15.60;99.90
22966;DHT22;11649;48.090;9.754;2022-10-28T17:05:36;15.60;99.90
22966;DHT22;11649;48.090;9.754;2022-10-28T17:08:02;15.50;99.90
22966;DHT22;11649;48.090;9.754;2022-10-28T17:10:35;15.40;99.90
22966;DHT22;11649;48.090;9.754;2022-10-28T17:13:02;15.40;99.90
22966;DHT22;11649;48.090;9.754;2022-10-28T17:15:28;15.70;99.90
22966;DHT22;11649;48.090;9.754;2022-10-28T17:17:55;15.40;99.90
22966;DHT22;11649;48.090;9.754;2022-10-28T17:20:23;15.30;99.90
22966;DHT22;11649;48.090;9.754;2022-10-28T17:22:50;15.30;99.90
22966;DHT22;11649;48.090;9.754;2022-10-28T17:25:17;15.20;99.90
22966;DHT22;11649;48.090;9.754;2022-10-28T17:27:44;15.20;99.90
22966;DHT22;11649;48.090;9.754;2022-10-28T17:30:15;15.40;99.90
22966;DHT22;11649;48.090;9.754;2022-10-28T17:32:44;15.10;99.90
22966;DHT22;11649;48.090;9.754;2022-10-28T17:35:14;15.10;99.90
22966;DHT22;11649;48.090;9.754;2022-10-28T17:37:41;15.10;99.90
22966;DHT22;11649;48.090;9.754;2022-10-28T17:40:07;15.20;99.90
22966;DHT22;11649;48.090;9.754;2022-10-28T17:42:37;15.20;99.90
22966;DHT22;11649;48.090;9.754;2022-10-28T17:45:05;15.30;99.90
22966;DHT22;11649;48.090;9.754;2022-10-28T17:47:33;15.20;99.90
22966;DHT22;11649;48.090;9.754;2022-10-28T17:50:00;15.20;99.90
22966;DHT22;11649;48.090;9.754;2022-10-28T17:52:27;15.10;99.90
22966;DHT22;11649;48.090;9.754;2022-10-28T17:55:01;15.20;99.90
22966;DHT22;11649;48.090;9.754;2022-10-28T17:57:27;15.10;99.90
22966;DHT22;11649;48.090;9.754;2022-10-28T17:59:54;15.20;99.90
22966;DHT22;11649;48.090;9.754;2022-10-28T18:02:21;15.20;99.90
22966;DHT22;11649;48.090;9.754;2022-10-28T18:04:48;15.30;99.90
22966;DHT22;11649;48.090;9.754;2022-10-28T18:07:14;15.60;99.90
22966;DHT22;11649;48.090;9.754;2022-10-28T18:09:41;15.50;99.90
22966;DHT22;11649;48.090;9.754;2022-10-28T18:12:11;15.10;99.90
22966;DHT22;11649;48.090;9.754;2022-10-28T18:14:38;15.00;99.90
22966;DHT22;11649;48.090;9.754;2022-10-28T18:17:05;15.10;99.90
22966;DHT22;11649;48.090;9.754;2022-10-28T18:19:31;14.80;99.90
22966;DHT22;11649;48.090;9.754;2022-10-28T18:21:58;14.80;99.90
22966;DHT22;11649;48.090;9.754;2022-10-28T18:24:25;14.80;99.90
22966;DHT22;11649;48.090;9.754;2022-10-28T18:26:53;14.70;99.90
22966;DHT22;11649;48.090;9.754;2022-10-28T18:29:20;15.00;99.90
22966;DHT22;11649;48.090;9.754;2022-10-28T18:31:47;15.00;99.90
22966;DHT22;11649;48.090;9.754;2022-10-28T18:34:14;14.60;99.90
22966;DHT22;11649;48.090;9.754;2022-10-28T18:36:40;14.60;99.90
22966;DHT22;11649;48.090;9.754;2022-10-28T18:39:07;14.30;99.90
22966;DHT22;11649;48.090;9.754;2022-10-28T18:41:36;14.80;99.90
22966;DHT22;11649;48.090;9.754;2022-10-28T18:44:04;14.60;99.90